Time;durP1;ratioP1;P1;durP2;ratioP2;P2;SDS_P1;SDS_P2;PMS_P1;PMS_P2;Temp;Humidity;BMP_temperature;BMP_pressure;BME280_temperature;BME280_humidity;BME280_pressure;Samples;Min_cycle;Max_cycle;Signal;HPM_P1;HPM_P2
2022/12/28 00:00:05;;;;;;;20.50;9.40;;;8.60;99.90;;;8.75;96.79;101251.44;5036004;28;20127;-65
2022/12/28 00:02:39;;;;;;;14.38;9.43;;;8.60;99.90;;;8.74;96.14;101261.09;5036001;28;20060;-65
2022/12/28 00:05:09;;;;;;;15.73;9.82;;;8.60;99.90;;;8.73;96.52;101224.16;5036170;28;20050;-64
2022/12/28 00:07:37;;;;;;;18.05;9.75;;;8.60;99.90;;;8.62;95.78;101220.53;5034346;28;20414;-65
2022/12/28 00:10:08;;;;;;;19.17;10.45;;;8.60;99.90;;;8.63;96.33;101224.94;5036099;28;20111;-64
2022/12/28 00:12:36;;;;;;;20.42;10.07;;;8.60;99.90;;;8.81;96.02;101214.53;5035825;28;20609;-64
2022/12/28 00:15:06;;;;;;;14.07;9.52;;;8.60;99.90;;;8.74;95.91;101204.81;5035560;28;20042;-64
2022/12/28 00:17:34;;;;;;;19.27;10.23;;;8.60;99.90;;;8.78;96.19;101214.53;5035965;28;20605;-65
2022/12/28 00:20:03;;;;;;;19.40;10.50;;;8.60;99.90;;;8.70;96.05;101195.13;5035864;28;20129;-65
2022/12/28 00:22:31;;;;;;;18.17;10.27;;;8.60;99.90;;;8.83;95.83;101204.88;5036104;28;20044;-64
2022/12/28 00:24:59;;;;;;;18.60;11.32;;;8.70;99.90;;;8.83;95.87;101215.44;5036064;28;20045;-65
2022/12/28 00:27:29;;;;;;;17.13;11.40;;;8.70;99.90;;;8.86;96.26;101183.84;5051090;28;20096;-64
2022/12/28 00:29:59;;;;;;;19.80;11.43;;;8.70;99.90;;;8.94;95.69;101190.06;5034380;28;20053;-65
2022/12/28 00:32:28;;;;;;;20.10;12.07;;;8.80;99.90;;;8.86;95.94;101190.00;5035609;28;20111;-64
2022/12/28 00:34:57;;;;;;;20.85;12.10;;;8.70;99.90;;;8.88;95.67;101155.72;5035218;28;20395;-64
2022/12/28 00:37:26;;;;;;;18.95;11.32;;;8.70;99.90;;;8.84;95.71;101168.00;5050871;28;20103;-64
2022/12/28 00:39:56;;;;;;;19.77;11.88;;;8.70;99.90;;;8.88;96.19;101160.97;5034090;28;20054;-65
2022/12/28 00:42:24;;;;;;;17.75;12.23;;;8.70;99.90;;;8.89;96.29;101186.47;5050750;28;20059;-62
2022/12/28 00:44:54;;;;;;;19.17;11.52;;;8.80;99.90;;;8.90;96.57;101178.56;5050748;28;20461;-64
2022/12/28 00:47:22;;;;;;;19.27;11.90;;;8.70;99.90;;;8.46;95.61;101071.91;5035375;28;20052;-64
2022/12/28 00:49:50;;;;;;;20.17;11.55;;;8.80;99.90;;;8.78;95.91;101138.06;5035048;28;20565;-64
2022/12/28 00:52:19;;;;;;;18.40;12.25;;;8.80;99.90;;;8.97;95.69;101150.50;5035319;28;20046;-65
2022/12/28 00:54:47;;;;;;;24.40;13.60;;;8.80;99.90;;;8.88;95.72;101146.00;5033784;28;20510;-64
2022/12/28 00:57:16;;;;;;;17.48;12.30;;;8.70;99.90;;;7.17;95.35;100832.09;5035101;28;20053;-66
2022/12/28 00:59:44;;;;;;;15.10;12.18;;;8.80;99.90;;;9.02;95.59;101144.34;5035093;28;20037;-64
2022/12/28 01:02:14;;;;;;;20.75;12.02;;;8.90;99.90;;;9.06;95.84;101108.31;5034607;28;20083;-64
2022/12/28 01:04:42;;;;;;;20.63;12.30;;;8.90;99.90;;;8.97;95.48;101088.06;5033766;28;20506;-64
2022/12/28 01:07:11;;;;;;;17.98;12.05;;;8.80;99.90;;;9.00;95.67;101145.25;5035068;28;20046;-65
2022/12/28 01:09:40;;;;;;;21.13;10.77;;;8.80;99.90;;;9.05;95.70;101111.84;5050297;28;20045;-63
2022/12/28 01:12:09;;;;;;;19.40;11.45;;;8.90;99.90;;;9.01;95.70;101121.50;5050192;28;20328;-64
2022/12/28 01:14:37;;;;;;;17.65;11.52;;;8.90;99.90;;;9.06;95.56;101105.69;5034806;28;20071;-64
2022/12/28 01:17:05;;;;;;;22.98;11.80;;;8.90;99.90;;;9.06;95.62;101134.69;5034546;28;20103;-63
2022/12/28 01:19:35;;;;;;;18.27;11.77;;;8.90;99.90;;;9.04;95.59;101086.31;5034456;28;20096;-64
2022/12/28 01:22:04;;;;;;;19.55;12.13;;;9.00;99.90;;;9.15;95.21;101096.94;5050132;28;20045;-63
2022/12/28 01:24:33;;;;;;;19.13;11.43;;;9.00;99.90;;;9.18;95.26;101104.84;5049963;28;20478;-64
2022/12/28 01:27:01;;;;;;;20.60;11.98;;;9.00;99.90;;;9.09;95.00;101084.59;5034382;28;20499;-64
2022/12/28 01:29:30;;;;;;;18.80;11.77;;;9.00;99.90;;;8.97;94.84;101050.25;5034483;28;20048;-63
2022/12/28 01:31:58;;;;;;;18.55;11.77;;;8.90;99.90;;;9.06;95.62;101105.69;5034202;28;20042;-64
2022/12/28 01:34:29;;;;;;;16.05;11.80;;;8.90;99.90;;;9.05;95.27;101103.94;5049800;28;20450;-64
2022/12/28 01:36:59;;;;;;;18.95;12.13;;;8.90;99.90;;;9.13;95.66;101123.34;5049681;28;20077;-64
2022/12/28 01:39:28;;;;;;;18.75;12.32;;;8.90;99.90;;;8.72;95.18;101043.06;5034359;28;20065;-63
2022/12/28 01:41:56;;;;;;;22.70;12.88;;;8.90;99.90;;;9.07;95.81;101089.00;5049636;28;20096;-63
2022/12/28 01:44:44;;;;;;;21.17;13.68;;;8.90;99.90;;;8.97;95.54;101088.06;5034249;28;20041;-64
2022/12/28 01:47:18;;;;;;;19.63;12.25;;;9.00;99.90;;;9.04;95.51;101068.75;5033029;28;20057;-64
2022/12/28 01:49:58;;;;;;;20.85;12.80;;;8.90;99.90;;;9.08;95.89;101077.53;5034548;28;20063;-64
2022/12/28 01:52:33;;;;;;;17.13;12.27;;;8.90;99.90;;;9.03;95.78;101055.56;5033924;28;20487;-64
2022/12/28 01:55:09;;;;;;;18.20;12.75;;;9.00;99.90;;;9.09;95.66;101034.47;5033807;28;20037;-64
2022/12/28 01:57:43;;;;;;;17.70;12.00;;;8.90;99.90;;;9.13;95.89;101054.72;5033725;28;20503;-63
2022/12/28 02:00:14;;;;;;;19.60;12.02;;;9.00;99.90;;;9.12;95.65;101086.38;5034019;28;20069;-64
2022/12/28 02:02:53;;;;;;;14.85;11.70;;;9.00;99.90;;;9.01;95.62;101042.34;5034044;28;20441;-64
2022/12/28 02:05:27;;;;;;;16.80;11.75;;;9.00;99.90;;;9.19;95.89;101030.13;5033932;28;20050;-64
2022/12/28 02:08:02;;;;;;;17.67;11.60;;;9.00;99.90;;;9.26;95.76;101030.13;5033719;28;20610;-64
2022/12/28 02:10:33;;;;;;;19.85;11.43;;;9.10;99.90;;;9.31;95.48;101033.66;5032616;28;20571;-65
2022/12/28 02:13:14;;;;;;;17.98;11.02;;;9.10;99.90;;;9.31;95.31;101041.56;5031788;28;20045;-64
2022/12/28 02:15:44;;;;;;;13.27;10.55;;;9.10;99.90;;;9.32;95.19;101032.78;5032374;28;20049;-64
2022/12/28 02:18:14;;;;;;;16.77;11.05;;;9.20;99.90;;;9.33;95.63;101060.94;5033692;28;20084;-64
2022/12/28 02:21:02;;;;;;;16.15;10.80;;;9.20;99.90;;;9.36;95.75;100996.72;5033487;28;20073;-64
2022/12/28 02:24:03;;;;;;;17.48;10.80;;;9.20;99.90;;;9.36;95.89;101016.09;5033672;28;20133;-64
2022/12/28 02:26:47;;;;;;;19.70;11.77;;;9.20;99.90;;;9.41;95.83;101018.72;5033495;28;20049;-64
2022/12/28 02:29:54;;;;;;;14.02;10.05;;;9.20;99.90;;;9.37;96.25;101004.66;5033607;28;20136;-64
2022/12/28 02:32:47;;;;;;;13.63;11.10;;;9.20;99.90;;;9.46;96.27;101015.25;5033602;28;20128;-64
2022/12/28 02:35:23;;;;;;;13.63;11.00;;;9.20;99.90;;;9.52;96.54;101017.03;5033311;28;20045;-64
2022/12/28 02:37:57;;;;;;;15.23;10.45;;;9.30;99.90;;;9.61;95.84;101022.31;5033469;28;20048;-64
2022/12/28 02:40:32;;;;;;;17.42;11.18;;;9.40;99.90;;;9.57;96.18;101000.31;5033411;28;20049;-64
2022/12/28 02:43:03;;;;;;;15.90;10.65;;;9.40;99.90;;;9.51;96.24;100992.38;5033378;28;20132;-64
2022/12/28 02:51:47;;;;;;;17.63;11.30;;;9.30;99.90;;;9.51;97.47;100965.97;5033338;28;20046;-63
2022/12/28 02:58:22;;;;;;;15.98;10.18;;;9.40;99.90;;;9.60;97.53;101010.00;5048589;28;20050;-63
2022/12/28 03:01:09;;;;;;;14.50;10.60;;;9.40;99.90;;;9.58;98.13;100978.28;5032887;28;20108;-64
2022/12/28 03:03:53;;;;;;;14.18;9.95;;;9.40;99.90;;;9.61;98.29;100988.88;5031968;28;20049;-63
2022/12/28 03:09:24;;;;;;;16.27;10.73;;;9.40;99.90;;;9.55;98.81;101009.97;5031589;28;20071;-63
2022/12/28 03:11:59;;;;;;;14.27;9.93;;;9.30;99.90;;;9.58;98.97;101022.31;5032901;28;20072;-64
2022/12/28 03:14:36;;;;;;;15.68;10.52;;;9.40;99.90;;;9.56;99.52;101000.31;5032061;28;20423;-64
2022/12/28 03:31:27;;;;;;;12.82;8.82;;;9.50;99.90;;;9.67;99.87;100978.31;5051819;28;20056;-64
2022/12/28 03:34:06;;;;;;;12.93;8.88;;;9.50;99.90;;;9.68;99.69;100980.06;5052428;28;20049;-64
2022/12/28 03:36:48;;;;;;;15.80;9.85;;;9.50;99.90;;;9.70;99.72;100975.66;5035129;28;20053;-64
2022/12/28 03:39:25;;;;;;;15.07;9.15;;;9.50;99.90;;;9.22;100.00;100888.50;5036713;28;20041;-64
2022/12/28 03:44:54;;;;;;;10.95;8.00;;;9.60;99.90;;;9.72;100.00;100965.97;5051896;28;20100;-63
2022/12/28 03:47:26;;;;;;;11.63;8.05;;;9.60;99.90;;;9.82;100.00;100967.75;5035350;28;20487;-63
2022/12/28 03:49:56;;;;;;;14.00;8.77;;;9.60;99.90;;;9.85;99.74;100951.88;5034982;28;20537;-63
2022/12/28 03:52:25;;;;;;;9.87;7.13;;;9.70;99.90;;;9.76;99.93;100936.03;5036463;28;20438;-64
2022/12/28 03:54:53;;;;;;;12.93;7.65;;;9.70;99.90;;;9.85;99.90;100930.75;5034734;28;20048;-64
2022/12/28 03:57:23;;;;;;;9.15;7.05;;;9.70;99.90;;;9.95;99.98;100936.91;5035037;28;20068;-63
2022/12/28 03:59:51;;;;;;;13.63;7.40;;;9.70;99.90;;;9.96;99.68;100951.91;5035022;28;20553;-64
2022/12/28 04:02:20;;;;;;;10.52;7.25;;;9.80;99.90;;;9.96;100.00;100939.56;5034961;28;20048;-63
2022/12/28 04:04:49;;;;;;;13.82;8.30;;;9.70;99.90;;;9.96;100.00;100958.06;5034919;28;20060;-64
2022/12/28 04:07:18;;;;;;;13.45;7.85;;;9.80;99.90;;;10.01;99.70;100935.16;5034554;28;20104;-64
2022/12/28 04:09:48;;;;;;;12.30;7.18;;;9.90;99.90;;;10.01;100.00;100947.47;5034890;28;20112;-64
2022/12/28 04:12:17;;;;;;;9.38;7.10;;;9.80;99.90;;;10.02;100.00;100933.41;5036061;28;20479;-64
2022/12/28 04:15:07;;;;;;;11.02;7.05;;;9.80;99.90;;;10.03;100.00;100943.97;5035838;28;20462;-63
2022/12/28 04:17:35;;;;;;;10.18;6.80;;;9.80;99.90;;;9.99;100.00;100928.09;5034751;28;20060;-63
2022/12/28 04:20:05;;;;;;;14.57;8.10;;;9.80;99.90;;;10.00;100.00;100953.66;5034574;28;20088;-64
2022/12/28 04:22:35;;;;;;;15.00;8.95;;;9.80;99.90;;;10.00;100.00;100938.69;5034701;28;20091;-64
2022/12/28 04:25:05;;;;;;;12.88;7.60;;;9.80;99.90;;;10.01;100.00;100953.66;5036147;28;20430;-64
2022/12/28 04:27:35;;;;;;;12.27;8.35;;;9.80;99.90;;;9.83;100.00;100918.44;5034519;28;20042;-64
2022/12/28 04:30:11;;;;;;;12.27;7.68;;;9.80;99.90;;;10.01;100.00;100936.91;5034476;28;20053;-64
2022/12/28 04:32:41;;;;;;;10.63;7.50;;;9.80;99.90;;;10.03;100.00;100928.09;5051019;28;20140;-64
2022/12/28 04:35:09;;;;;;;12.85;7.50;;;9.80;99.90;;;9.96;100.00;100923.72;5035604;28;20465;-64
2022/12/28 04:37:47;;;;;;;11.35;7.47;;;9.80;99.90;;;10.00;100.00;100929.88;5033439;28;20144;-63
2022/12/28 04:40:16;;;;;;;9.82;7.28;;;9.80;99.90;;;10.06;100.00;100913.13;5035549;28;20045;-64
2022/12/28 04:42:44;;;;;;;14.43;6.90;;;9.80;99.90;;;10.06;100.00;100913.13;5035486;28;20053;-64
2022/12/28 04:45:12;;;;;;;8.90;6.85;;;9.90;99.90;;;10.03;100.00;100914.88;5035177;28;20067;-64
2022/12/28 04:47:49;;;;;;;11.38;6.70;;;9.80;99.90;;;10.12;100.00;100921.09;5035474;28;20049;-64
2022/12/28 04:50:17;;;;;;;11.63;6.97;;;9.90;99.90;;;10.02;100.00;100909.63;5035092;28;20095;-64
2022/12/28 04:52:47;;;;;;;8.50;6.90;;;9.90;99.90;;;10.15;100.00;100934.28;5035010;28;20050;-64
2022/12/28 04:55:15;;;;;;;8.38;6.93;;;9.90;99.90;;;10.17;100.00;100929.88;5033930;28;20053;-63
2022/12/28 04:58:00;;;;;;;10.57;6.95;;;9.90;99.90;;;10.07;100.00;100931.63;5034975;28;20069;-64
2022/12/28 05:00:29;;;;;;;10.20;7.30;;;9.90;99.90;;;10.09;100.00;100902.53;5034837;28;20124;-64
2022/12/28 05:02:59;;;;;;;13.07;6.90;;;9.90;99.90;;;10.07;100.00;100899.91;5034807;28;20049;-64
2022/12/28 05:05:29;;;;;;;11.40;7.05;;;9.90;99.90;;;9.93;100.00;100886.72;5035089;28;20423;-64
2022/12/28 05:08:01;;;;;;;10.45;6.65;;;9.90;99.90;;;10.06;100.00;100874.38;5034535;28;20053;-64
2022/12/28 05:10:30;;;;;;;11.57;6.72;;;9.80;99.90;;;9.94;100.00;100890.25;5034722;28;20045;-63
2022/12/28 05:12:58;;;;;;;8.15;6.53;;;9.80;99.90;;;9.58;100.00;100821.63;5034650;28;20045;-64
2022/12/28 05:15:26;;;;;;;10.00;7.30;;;9.80;99.90;;;9.41;100.00;100784.69;5034520;28;20041;-64
2022/12/28 05:17:56;;;;;;;12.90;7.05;;;9.90;99.90;;;10.11;100.00;100891.13;5034804;28;20080;-64
2022/12/28 05:20:24;;;;;;;8.25;6.63;;;9.90;99.90;;;9.83;100.00;100852.41;5034732;28;20049;-64
2022/12/28 05:22:52;;;;;;;11.48;6.75;;;9.90;99.90;;;10.00;100.00;100872.63;5034469;28;20045;-64
2022/12/28 05:25:22;;;;;;;8.10;6.47;;;9.80;99.90;;;10.13;100.00;100905.22;5034404;28;20068;-64
2022/12/28 05:27:50;;;;;;;14.40;7.17;;;9.90;99.90;;;10.04;100.00;100895.50;5034437;28;20465;-64
2022/12/28 05:30:19;;;;;;;14.07;6.68;;;9.90;99.90;;;10.15;100.00;100898.16;5034507;28;20080;-63
2022/12/28 05:32:47;;;;;;;9.13;6.30;;;9.90;99.90;;;10.17;100.00;100885.81;5034301;28;20145;-64
2022/12/28 05:35:15;;;;;;;8.90;6.55;;;9.90;99.90;;;10.01;100.00;100861.16;5034773;28;20112;-64
2022/12/28 05:37:44;;;;;;;9.88;6.78;;;9.90;99.90;;;10.22;100.00;100880.53;5034081;28;20096;-64
2022/12/28 05:40:12;;;;;;;9.02;6.38;;;10.00;99.90;;;10.21;100.00;100884.03;5034093;28;20045;-64
2022/12/28 05:42:42;;;;;;;10.57;6.20;;;10.00;99.90;;;10.23;100.00;100892.84;5034048;28;20053;-64
2022/12/28 05:45:18;;;;;;;9.45;6.60;;;10.00;99.90;;;10.21;100.00;100873.47;5034075;28;20124;-64
2022/12/28 05:47:47;;;;;;;12.02;6.40;;;10.00;99.90;;;10.24;100.00;100871.69;5033961;28;20124;-63
2022/12/28 05:50:16;;;;;;;7.55;6.03;;;10.00;99.90;;;10.27;100.00;100876.09;5032634;28;20053;-63
2022/12/28 05:52:44;;;;;;;8.32;6.10;;;10.10;99.90;;;10.30;100.00;100869.03;5033900;28;20132;-64
2022/12/28 05:55:12;;;;;;;10.07;6.45;;;10.10;99.90;;;10.35;100.00;100863.75;5033823;28;20080;-63
2022/12/28 05:57:42;;;;;;;9.25;6.35;;;10.10;99.90;;;10.39;100.00;100870.78;5033729;28;20053;-64
2022/12/28 06:00:12;;;;;;;10.68;5.95;;;10.20;99.90;;;10.46;100.00;100883.09;5033689;28;20128;-64
2022/12/28 06:02:40;;;;;;;9.83;6.37;;;10.20;99.90;;;10.40;100.00;100873.41;5033600;28;20045;-64
2022/12/28 06:05:09;;;;;;;7.80;6.75;;;10.20;99.90;;;10.37;100.00;100872.56;5033670;28;20068;-64
2022/12/28 06:07:38;;;;;;;11.73;6.60;;;10.20;99.90;;;10.36;100.00;100868.13;5033398;28;20545;-64
2022/12/28 06:10:08;;;;;;;10.93;6.53;;;10.20;99.90;;;10.38;100.00;100854.03;5033612;28;20132;-64
2022/12/28 06:12:36;;;;;;;8.70;5.75;;;10.20;99.90;;;10.45;100.00;100870.75;5033570;28;20045;-64
2022/12/28 06:15:07;;;;;;;10.10;6.07;;;10.20;99.90;;;10.40;100.00;100846.97;5033557;28;20049;-64
2022/12/28 06:17:36;;;;;;;7.72;6.43;;;10.20;99.90;;;10.39;100.00;100862.84;5033386;28;20041;-64
2022/12/28 06:20:05;;;;;;;8.93;6.70;;;10.20;99.90;;;10.46;100.00;100870.75;5033443;28;20103;-64
2022/12/28 06:22:35;;;;;;;9.05;5.93;;;10.20;99.90;;;10.38;100.00;100858.44;5033338;28;20060;-64
2022/12/28 06:25:03;;;;;;;9.93;6.20;;;10.20;99.90;;;10.48;100.00;100844.28;5032350;28;20045;-64
2022/12/28 06:27:31;;;;;;;11.07;6.40;;;10.30;99.90;;;10.36;100.00;100839.03;5033292;28;20045;-64
2022/12/28 06:30:00;;;;;;;9.52;6.40;;;10.20;99.90;;;10.38;100.00;100847.84;5033479;28;20053;-64
2022/12/28 06:32:29;;;;;;;8.05;6.25;;;10.20;99.90;;;10.45;100.00;100854.91;5033152;28;20484;-64
2022/12/28 06:34:58;;;;;;;10.83;6.70;;;10.20;99.90;;;10.41;100.00;100867.25;5033194;28;20064;-64
2022/12/28 06:37:26;;;;;;;11.35;6.53;;;10.20;99.90;;;10.47;100.00;100847.84;5032917;28;20029;-63
2022/12/28 06:39:54;;;;;;;9.30;6.43;;;10.20;99.90;;;10.45;100.00;100833.75;5033317;28;20046;-64
2022/12/28 06:42:23;;;;;;;9.20;6.00;;;10.30;99.90;;;10.53;100.00;100848.66;5033287;28;20045;-63
2022/12/28 06:44:51;;;;;;;10.88;6.85;;;10.30;99.90;;;10.45;100.00;100831.09;5032991;28;20530;-63
2022/12/28 06:47:19;;;;;;;10.70;6.25;;;10.30;99.90;;;10.49;100.00;100838.13;5032893;28;20483;-63
2022/12/28 06:49:49;;;;;;;10.55;6.30;;;10.30;99.90;;;10.42;100.00;100833.75;5032946;28;20069;-64
2022/12/28 06:52:17;;;;;;;7.20;5.95;;;10.20;99.90;;;10.28;100.00;100807.38;5031915;28;20047;-64
2022/12/28 06:54:45;;;;;;;12.13;6.40;;;10.20;99.90;;;10.47;100.00;100839.91;5032905;28;20120;-64
2022/12/28 06:57:14;;;;;;;10.93;6.25;;;10.20;99.90;;;10.48;100.00;100844.28;5032846;28;20045;-64
2022/12/28 06:59:42;;;;;;;11.18;5.82;;;10.30;99.90;;;10.54;100.00;100849.56;5035167;28;20511;-64
2022/12/28 07:02:10;;;;;;;7.82;6.00;;;10.30;99.90;;;10.28;100.00;100801.22;5039496;28;20415;-64
2022/12/28 07:04:39;;;;;;;9.13;6.75;;;10.30;99.90;;;10.41;100.00;100830.25;5039731;28;20285;-63
2022/12/28 07:07:09;;;;;;;7.95;5.80;;;10.30;99.90;;;10.42;100.00;100823.16;5039255;28;20063;-64
2022/12/28 07:09:38;;;;;;;10.90;6.72;;;10.30;99.90;;;10.55;100.00;100835.47;5039899;28;20061;-64
2022/12/28 07:12:06;;;;;;;9.77;6.10;;;10.30;99.90;;;10.57;100.00;100823.09;5039399;28;20506;-64
2022/12/28 07:14:35;;;;;;;9.70;6.53;;;10.30;99.90;;;10.58;100.00;100830.16;5039671;28;20506;-63
2022/12/28 07:17:03;;;;;;;8.90;5.90;;;10.30;99.90;;;10.62;100.00;100842.47;5039197;28;20041;-63
2022/12/28 07:19:31;;;;;;;10.10;6.72;;;10.30;99.90;;;10.59;100.00;100858.34;5038007;28;20103;-63
2022/12/28 07:22:00;;;;;;;10.77;5.60;;;10.40;99.90;;;10.58;100.00;100827.50;5039850;28;20044;-63
2022/12/28 07:24:29;;;;;;;10.02;5.57;;;10.40;99.90;;;10.55;100.00;100838.13;5039611;28;20068;-63
2022/12/28 07:26:58;;;;;;;9.90;7.03;;;10.40;99.90;;;10.63;100.00;100844.22;5039576;28;20452;-63
2022/12/28 07:29:26;;;;;;;9.55;6.00;;;10.40;99.90;;;10.73;100.00;100838.00;5039234;28;20120;-64
2022/12/28 07:31:54;;;;;;;8.13;6.47;;;10.50;99.90;;;10.70;100.00;100835.38;5039176;28;20068;-63
2022/12/28 07:34:23;;;;;;;8.00;6.60;;;10.50;99.90;;;10.73;100.00;100832.69;5039381;28;20464;-64
2022/12/28 07:36:51;;;;;;;9.80;6.50;;;10.50;99.90;;;10.58;100.00;100812.53;5039099;28;20150;-64
2022/12/28 07:39:19;;;;;;;10.18;6.82;;;10.50;99.90;;;10.75;100.00;100828.28;5038868;28;20029;-64
2022/12/28 07:41:49;;;;;;;9.70;5.90;;;10.50;99.90;;;10.76;100.00;100843.28;5039124;28;20053;-64
2022/12/28 07:44:22;;;;;;;12.25;5.97;;;10.50;99.90;;;10.76;100.00;100836.19;5054832;28;20095;-64
2022/12/28 07:46:56;;;;;;;6.50;5.80;;;10.50;99.90;;;10.88;100.00;100840.53;5039225;28;20037;-64
2022/12/28 07:49:24;;;;;;;11.95;6.68;;;10.60;99.90;;;10.92;100.00;100842.28;5039582;28;20036;-64
2022/12/28 07:51:53;;;;;;;10.30;5.97;;;10.70;99.90;;;10.85;100.00;100840.56;5039293;28;20056;-64
2022/12/28 07:54:21;;;;;;;10.32;6.28;;;10.70;99.90;;;10.78;100.00;100844.16;5039468;28;20042;-64
2022/12/28 07:56:51;;;;;;;8.27;6.00;;;10.60;99.90;;;10.82;100.00;100849.41;5039268;28;20049;-64
2022/12/28 07:59:20;;;;;;;8.98;6.43;;;10.60;99.90;;;10.89;100.00;100826.44;5038926;28;20041;-61
2022/12/28 08:01:56;;;;;;;10.52;6.03;;;10.60;99.90;;;10.94;100.00;100844.94;5038941;28;20056;-64
2022/12/28 08:04:25;;;;;;;7.03;5.78;;;10.70;99.90;;;10.90;100.00;100844.94;5038971;28;20045;-64
2022/12/28 08:06:53;;;;;;;6.97;5.80;;;10.70;99.90;;;10.95;100.00;100833.47;5038829;28;20037;-63
2022/12/28 08:09:21;;;;;;;10.80;5.93;;;10.70;99.90;;;10.75;100.00;100813.28;5039202;28;20049;-63
2022/12/28 08:11:51;;;;;;;11.35;6.45;;;10.70;99.90;;;10.87;100.00;100844.09;5035638;28;20107;-63
2022/12/28 08:14:19;;;;;;;6.77;6.17;;;10.70;99.90;;;10.79;100.00;100843.25;5036087;28;20077;-63
2022/12/28 08:16:48;;;;;;;8.10;6.35;;;10.70;99.90;;;10.81;100.00;100829.13;5035944;28;20396;-63
2022/12/28 08:19:16;;;;;;;12.32;7.38;;;10.60;99.90;;;10.89;100.00;100837.03;5035537;28;20045;-63
2022/12/28 08:21:45;;;;;;;8.95;7.40;;;10.60;99.90;;;10.92;100.00;100841.44;5035525;28;20063;-64
2022/12/28 08:24:16;;;;;;;8.60;7.60;;;10.70;99.90;;;10.88;100.00;100848.47;5035542;28;20099;-63
2022/12/28 08:26:46;;;;;;;11.35;8.48;;;10.70;99.90;;;10.85;100.00;100828.22;5035845;28;20053;-63
2022/12/28 08:29:19;;;;;;;11.32;8.88;;;10.60;99.90;;;10.89;100.00;100858.19;5036086;28;20042;-63
2022/12/28 08:31:48;;;;;;;12.98;9.00;;;10.60;99.90;;;10.93;100.00;100836.13;5035739;28;20076;-63
2022/12/28 08:34:21;;;;;;;12.93;9.67;;;10.70;99.90;;;10.82;100.00;100830.88;5036003;28;20045;-64
2022/12/28 08:36:50;;;;;;;12.13;9.68;;;10.70;99.90;;;10.89;100.00;100831.72;5035118;28;20042;-64
2022/12/28 08:39:18;;;;;;;13.38;9.63;;;10.70;99.90;;;10.84;100.00;100815.88;5035543;28;20065;-64
2022/12/28 08:41:48;;;;;;;9.68;8.35;;;10.60;99.90;;;10.85;100.00;100827.34;5035495;28;20045;-65
2022/12/28 08:44:18;;;;;;;11.82;8.98;;;10.60;99.90;;;10.89;100.00;100814.09;5035203;28;20048;-65
2022/12/28 08:46:46;;;;;;;9.80;8.63;;;10.70;99.90;;;10.89;100.00;100800.88;5035191;28;20148;-64
2022/12/28 08:49:15;;;;;;;9.32;8.20;;;10.70;99.90;;;10.83;100.00;100821.19;5035100;28;20487;-65
2022/12/28 08:51:44;;;;;;;10.13;8.02;;;10.70;99.90;;;10.80;100.00;100822.06;5035082;28;20049;-63
2022/12/28 08:54:13;;;;;;;9.07;8.18;;;10.60;99.90;;;10.66;100.00;100778.97;5035295;28;20058;-61
2022/12/28 08:56:44;;;;;;;9.18;8.27;;;10.60;99.90;;;10.84;100.00;100817.63;5034970;28;20053;-63
2022/12/28 08:59:15;;;;;;;8.60;7.70;;;10.60;99.90;;;10.77;100.00;100814.16;5035100;28;20049;-63
2022/12/28 09:01:46;;;;;;;12.65;8.00;;;10.60;99.90;;;10.84;100.00;100828.22;5034937;28;20056;-63
2022/12/28 09:04:17;;;;;;;11.00;8.48;;;10.60;99.90;;;10.84;100.00;100815.88;5034826;28;20037;-63
2022/12/28 09:06:46;;;;;;;11.93;7.45;;;10.60;99.90;;;10.85;100.00;100820.28;5034857;28;20411;-64
2022/12/28 09:09:18;;;;;;;13.48;8.23;;;10.70;99.90;;;10.86;100.00;100848.50;5035000;28;20131;-64
2022/12/28 09:11:47;;;;;;;12.30;8.00;;;10.70;99.90;;;10.91;100.00;100829.97;5034718;28;20052;-63
2022/12/28 09:14:16;;;;;;;14.75;8.45;;;10.70;99.90;;;11.01;100.00;100829.00;5034874;28;20045;-63
2022/12/28 09:16:53;;;;;;;10.15;7.85;;;10.80;99.90;;;11.04;100.00;100828.97;5033721;28;20049;-64
2022/12/28 09:19:22;;;;;;;9.75;7.90;;;10.80;99.90;;;11.08;100.00;100827.19;5034597;28;20069;-64
2022/12/28 09:21:51;;;;;;;13.75;9.50;;;10.80;99.90;;;10.98;100.00;100810.50;5034572;28;20033;-61
2022/12/28 09:24:20;;;;;;;13.40;8.98;;;10.90;99.90;;;11.12;100.00;100811.28;5034218;28;20099;-62
2022/12/28 09:26:51;;;;;;;15.95;9.73;;;10.90;99.90;;;11.05;100.00;100833.41;5034483;28;20072;-63
2022/12/28 09:29:20;;;;;;;14.32;9.23;;;10.80;99.90;;;11.09;100.00;100808.63;5034467;28;20052;-62
2022/12/28 09:31:48;;;;;;;15.35;9.27;;;10.90;99.90;;;11.12;100.00;100834.22;5034281;28;20396;-63
2022/12/28 09:34:18;;;;;;;11.80;8.02;;;10.90;99.90;;;11.11;100.00;100813.94;5034284;28;20051;-63
2022/12/28 09:37:05;;;;;;;11.00;8.20;;;10.90;99.90;;;10.95;100.00;100805.22;5034513;28;20100;-63
2022/12/28 09:39:34;;;;;;;12.85;7.95;;;10.90;99.90;;;10.99;100.00;100793.75;5034402;28;20077;-63
2022/12/28 09:42:08;;;;;;;12.82;8.00;;;10.80;99.90;;;11.06;100.00;100798.09;5034139;28;20103;-63
2022/12/28 09:44:59;;;;;;;14.95;7.40;;;10.90;99.90;;;11.16;100.00;100817.41;5034450;28;20473;-63
2022/12/28 09:47:38;;;;;;;11.63;7.68;;;10.90;99.90;;;10.97;100.00;100787.56;5034289;28;20096;-63
2022/12/28 09:50:29;;;;;;;13.05;7.00;;;10.90;99.90;;;11.09;100.00;100823.66;5034242;28;20041;-63
2022/12/28 09:53:18;;;;;;;13.77;6.82;;;10.90;99.90;;;11.14;100.00;100805.97;5034581;28;20111;-63
2022/12/28 09:55:57;;;;;;;13.85;7.35;;;10.90;99.90;;;11.20;100.00;100830.63;5034224;28;20136;-63
2022/12/28 09:58:27;;;;;;;12.07;6.68;;;11.00;99.90;;;11.24;100.00;100816.47;5032793;28;20076;-64
2022/12/28 10:00:58;;;;;;;10.77;6.65;;;11.00;99.90;;;11.19;100.00;100812.97;5033806;28;20041;-63
2022/12/28 10:03:33;;;;;;;12.10;6.80;;;11.00;99.90;;;11.12;99.99;100802.44;5034018;28;20041;-64
2022/12/28 10:06:12;;;;;;;14.25;6.90;;;11.00;99.90;;;11.18;100.00;100823.59;5033726;28;20037;-65
2022/12/28 10:08:45;;;;;;;11.38;6.88;;;11.00;99.90;;;10.61;100.00;100719.03;5033440;28;20057;-63
2022/12/28 10:11:19;;;;;;;13.25;6.80;;;11.00;99.90;;;11.20;100.00;100820.03;5033897;28;20053;-63
2022/12/28 10:13:53;;;;;;;12.48;6.63;;;11.00;99.90;;;11.21;100.00;100812.94;5033587;28;20124;-63
2022/12/28 10:16:26;;;;;;;14.85;8.20;;;11.00;99.90;;;11.19;100.00;100806.81;5033502;28;20072;-63
2022/12/28 10:18:55;;;;;;;12.48;7.95;;;11.00;99.90;;;11.19;100.00;100804.19;5033718;28;20041;-62
2022/12/28 10:21:30;;;;;;;13.00;8.45;;;11.00;99.90;;;11.17;100.00;100796.22;5033415;28;20111;-62
2022/12/28 10:24:01;;;;;;;12.00;7.43;;;10.90;99.90;;;11.17;100.00;100806.81;5033636;28;20045;-63
2022/12/28 10:26:50;;;;;;;12.18;7.95;;;10.90;99.90;;;11.13;100.00;100804.22;5033474;28;20148;-65
2022/12/28 10:29:21;;;;;;;13.43;7.25;;;10.90;99.90;;;11.01;100.00;100793.72;5033290;28;20049;-65
2022/12/28 10:32:01;;;;;;;12.63;7.93;;;10.90;99.90;;;11.07;100.00;100809.56;5033543;28;20075;-64
2022/12/28 10:34:32;;;;;;;13.95;7.80;;;10.80;99.90;;;11.06;100.00;100810.44;5032570;28;20132;-65
2022/12/28 10:37:14;;;;;;;17.48;8.80;;;10.90;99.90;;;11.07;100.00;100801.63;5033495;28;20049;-63
2022/12/28 10:39:50;;;;;;;14.13;8.43;;;10.90;99.90;;;11.04;100.00;100797.22;5033209;28;20112;-64
2022/12/28 10:42:26;;;;;;;12.02;8.13;;;10.80;99.90;;;11.04;100.00;100778.69;5033189;28;20483;-64
2022/12/28 10:45:03;;;;;;;13.85;8.35;;;10.80;99.90;;;11.06;100.00;100803.38;5033499;28;20045;-65
2022/12/28 10:47:35;;;;;;;14.98;9.45;;;10.80;99.90;;;10.68;100.00;100741.94;5033370;28;20195;-64
2022/12/28 10:50:05;;;;;;;14.02;8.50;;;10.70;99.90;;;10.95;100.00;100792.00;5048652;28;20060;-64
2022/12/28 10:52:58;;;;;;;9.73;7.40;;;10.70;99.90;;;10.83;100.00;100782.38;5032900;28;20041;-64
2022/12/28 10:55:30;;;;;;;12.73;7.40;;;10.70;99.90;;;10.84;100.00;100765.59;5033058;28;20049;-65